createdAt,value
2018-01-19T00:00:05.593Z,0
2018-01-19T00:01:05.909Z,0
2018-01-19T00:02:05.875Z,0
2018-01-19T00:03:06.145Z,0
2018-01-19T00:04:05.651Z,0
2018-01-19T00:05:05.918Z,0
2018-01-19T00:06:05.739Z,0
2018-01-19T00:07:05.701Z,0
2018-01-19T00:08:05.702Z,0
2018-01-19T00:09:06.226Z,0
2018-01-19T00:10:05.735Z,0
2018-01-19T00:11:05.995Z,0
2018-01-19T00:12:05.510Z,0
2018-01-19T00:13:06.026Z,0
2018-01-19T00:14:06.046Z,0
2018-01-19T00:15:06.053Z,0
2018-01-19T00:16:05.809Z,0
2018-01-19T00:17:05.829Z,0
2018-01-19T00:18:05.593Z,0
2018-01-19T00:19:06.103Z,0
2018-01-19T00:20:06.120Z,0
2018-01-19T00:21:05.930Z,0
2018-01-19T00:22:05.643Z,0
2018-01-19T00:23:06.164Z,0
2018-01-19T00:24:05.922Z,0
2018-01-19T00:25:05.686Z,0
2018-01-19T00:26:05.957Z,0
2018-01-19T00:27:06.217Z,0
2018-01-19T00:28:06.232Z,0
2018-01-19T00:29:06.502Z,0
2018-01-19T00:30:05.751Z,0
2018-01-19T00:31:06.265Z,0
2018-01-19T00:32:06.530Z,0
2018-01-19T00:33:06.041Z,0
2018-01-19T00:34:06.316Z,0
2018-01-19T00:35:06.324Z,0
2018-01-19T00:36:06.142Z,0
2018-01-19T00:37:06.354Z,0
2018-01-19T00:38:06.368Z,0
2018-01-19T00:39:06.378Z,0
2018-01-19T00:40:06.142Z,0
2018-01-19T00:41:06.164Z,0
2018-01-19T00:42:05.920Z,0
2018-01-19T00:43:05.679Z,0
2018-01-19T00:44:06.200Z,0
2018-01-19T00:45:06.491Z,0
2018-01-19T00:46:06.967Z,0
2018-01-19T00:47:06.493Z,0
2018-01-19T00:48:06.508Z,0
2018-01-19T00:49:06.032Z,0
2018-01-19T00:50:06.786Z,0
2018-01-19T00:51:06.088Z,0
2018-01-19T00:52:06.304Z,0
2018-01-19T00:53:06.829Z,0
2018-01-19T00:54:06.337Z,0
2018-01-19T00:55:06.856Z,0
2018-01-19T00:56:06.116Z,0
2018-01-19T00:57:06.622Z,0
2018-01-19T00:58:06.405Z,0
2018-01-19T00:59:06.650Z,0
2018-01-19T01:00:06.678Z,0
2018-01-19T01:01:06.691Z,0
2018-01-19T01:02:06.715Z,0
2018-01-19T01:03:06.714Z,0
2018-01-19T01:04:06.725Z,0
2018-01-19T01:05:06.483Z,0
2018-01-19T01:06:06.760Z,0
2018-01-19T01:07:07.098Z,0
2018-01-19T01:08:06.779Z,0
2018-01-19T01:09:06.798Z,0
2018-01-19T01:10:06.577Z,0
2018-01-19T01:11:06.065Z,0
2018-01-19T01:12:06.381Z,0
2018-01-19T01:13:06.608Z,0
2018-01-19T01:14:06.364Z,0
2018-01-19T01:15:06.627Z,0
2018-01-19T01:16:06.645Z,0
2018-01-19T01:17:06.912Z,0
2018-01-19T01:18:06.925Z,0
2018-01-19T01:19:06.953Z,0
2018-01-19T01:20:06.952Z,0
2018-01-19T01:21:06.466Z,0
2018-01-19T01:22:07.034Z,0
2018-01-19T01:23:06.991Z,0
2018-01-19T01:24:07.012Z,0
2018-01-19T01:25:06.778Z,0
2018-01-19T01:26:06.789Z,0
2018-01-19T01:27:06.549Z,0
2018-01-19T01:28:06.879Z,0
2018-01-19T01:29:07.081Z,0
2018-01-19T01:30:07.113Z,0
2018-01-19T02:01:59.244Z,0
2018-01-19T02:02:50.341Z,0
2018-01-19T02:03:49.863Z,0
2018-01-19T02:04:50.115Z,0
2018-01-19T02:05:50.139Z,0
2018-01-19T02:06:50.158Z,0
2018-01-19T02:07:49.927Z,0
2018-01-19T02:08:50.175Z,0
2018-01-19T02:09:50.189Z,0
2018-01-19T02:10:49.949Z,0
2018-01-19T02:11:50.233Z,0
2018-01-19T02:12:49.975Z,0
2018-01-19T02:13:50.294Z,0
2018-01-19T02:14:50.260Z,0
2018-01-19T02:15:50.272Z,0
2018-01-19T02:16:50.086Z,0
2018-01-19T02:17:50.102Z,0
2018-01-19T02:18:50.013Z,0
2018-01-19T02:19:50.075Z,0
2018-01-19T02:20:50.093Z,0
2018-01-19T02:21:50.356Z,0
2018-01-19T02:22:50.380Z,0
2018-01-19T02:23:50.130Z,0
2018-01-19T02:24:50.145Z,0
2018-01-19T02:25:50.358Z,0
2018-01-19T02:26:50.676Z,0
2018-01-19T02:27:50.195Z,0
2018-01-19T02:28:49.950Z,0
2018-01-19T02:29:50.216Z,0
2018-01-19T02:30:49.985Z,0
2018-01-19T02:31:50.506Z,0
2018-01-19T02:32:50.821Z,0
2018-01-19T02:33:50.022Z,0
2018-01-19T02:34:50.295Z,0
2018-01-19T02:35:50.054Z,0
2018-01-19T02:36:50.316Z,0
2018-01-19T02:37:50.327Z,0
2018-01-19T02:38:50.092Z,0
2018-01-19T02:39:50.618Z,0
2018-01-19T02:40:50.658Z,0
2018-01-19T02:41:50.395Z,0
2018-01-19T02:42:50.646Z,0
2018-01-19T02:43:50.663Z,0
2018-01-19T02:44:50.928Z,0
2018-01-19T02:45:50.437Z,0
2018-01-19T02:46:50.987Z,0
2018-01-19T02:47:50.521Z,0
2018-01-19T02:48:50.234Z,0
2018-01-19T02:49:50.495Z,0
2018-01-19T02:50:50.259Z,0
2018-01-19T02:51:50.994Z,0
2018-01-19T02:52:50.283Z,0
2018-01-19T02:53:50.550Z,0
2018-01-19T02:54:50.810Z,0
2018-01-19T02:55:51.082Z,0
2018-01-19T02:56:50.344Z,0
2018-01-19T02:57:50.602Z,0
2018-01-19T02:58:51.116Z,0
2018-01-19T02:59:50.641Z,0
2018-01-19T03:00:50.893Z,0
2018-01-19T03:01:50.909Z,0
2018-01-19T03:02:50.719Z,0
2018-01-19T03:03:50.457Z,0
2018-01-19T03:04:50.443Z,0
2018-01-19T03:05:50.463Z,0
2018-01-19T03:06:51.238Z,0
2018-01-19T03:07:50.485Z,0
2018-01-19T03:08:51.015Z,0
2018-01-19T03:09:50.766Z,0
2018-01-19T03:10:51.286Z,0
2018-01-19T03:11:51.086Z,0
2018-01-19T03:12:51.306Z,0
2018-01-19T03:13:51.076Z,0
2018-01-19T03:14:50.582Z,0
2018-01-19T03:15:50.851Z,0
2018-01-19T03:16:51.135Z,0
2018-01-19T03:17:50.932Z,0
2018-01-19T03:18:51.142Z,0
2018-01-19T03:19:51.147Z,0
2018-01-19T03:20:50.916Z,0
2018-01-19T03:21:51.199Z,0
2018-01-19T03:22:50.950Z,0
2018-01-19T03:23:50.708Z,0
2018-01-19T03:24:50.968Z,0
2018-01-19T03:25:51.246Z,0
2018-01-19T03:26:51.254Z,0
2018-01-19T03:27:51.012Z,0
2018-01-19T03:28:51.024Z,0
2018-01-19T03:29:51.043Z,0
2018-01-19T03:30:51.311Z,0
2018-01-19T03:31:51.323Z,0
2018-01-19T03:32:51.081Z,0
2018-01-19T03:33:51.346Z,0
2018-01-19T03:34:51.406Z,0
2018-01-19T03:35:51.373Z,0
2018-01-19T03:36:51.386Z,0
2018-01-19T03:37:50.897Z,0
2018-01-19T03:38:51.418Z,0
2018-01-19T03:39:50.941Z,0
2018-01-19T03:40:50.941Z,0
2018-01-19T03:41:51.204Z,0
2018-01-19T03:42:51.218Z,0
2018-01-19T03:43:51.232Z,0
2018-01-19T03:44:50.995Z,0
2018-01-19T03:45:51.511Z,0
2018-01-19T03:46:51.522Z,0
2018-01-19T03:47:51.038Z,0
2018-01-19T03:48:51.050Z,0
2018-01-19T03:49:52.365Z,0
2018-01-19T03:50:51.081Z,0
2018-01-19T03:51:51.349Z,0
2018-01-19T03:52:51.109Z,0
2018-01-19T03:53:51.371Z,0
2018-01-19T03:54:50.881Z,0
2018-01-19T03:55:51.655Z,0
2018-01-19T03:56:51.678Z,0
2018-01-19T03:57:51.928Z,0
2018-01-19T03:58:51.436Z,0
2018-01-19T03:59:51.452Z,0
2018-01-19T04:00:51.214Z,0
2018-01-19T04:01:51.480Z,0
2018-01-19T04:02:51.994Z,0
2018-01-19T04:03:51.796Z,0
2018-01-19T04:04:51.772Z,0
2018-01-19T04:05:51.799Z,0
2018-01-19T04:06:51.803Z,0
2018-01-19T04:07:51.358Z,0
2018-01-19T04:08:51.828Z,0
2018-01-19T04:09:51.389Z,0
2018-01-19T04:10:51.856Z,0
2018-01-19T04:11:51.363Z,0
2018-01-19T04:12:51.634Z,0
2018-01-19T04:13:51.415Z,0
2018-01-19T04:14:51.662Z,0
2018-01-19T04:15:51.924Z,0
2018-01-19T04:16:51.685Z,0
2018-01-19T04:17:51.952Z,0
2018-01-19T04:18:51.715Z,0
2018-01-19T04:19:51.728Z,0
2018-01-19T04:20:51.786Z,0
2018-01-19T04:21:52.003Z,0
2018-01-19T04:22:51.770Z,0
2018-01-19T04:23:51.784Z,0
2018-01-19T04:24:52.100Z,0
2018-01-19T04:25:52.110Z,0
2018-01-19T04:26:52.072Z,0
2018-01-19T04:27:52.337Z,0
2018-01-19T04:28:52.357Z,0
2018-01-19T04:29:51.869Z,0
2018-01-19T04:30:51.885Z,0
2018-01-19T04:31:51.891Z,0
2018-01-19T04:32:51.920Z,0
2018-01-19T04:33:51.668Z,0
2018-01-19T04:34:51.985Z,0
2018-01-19T04:35:51.701Z,0
2018-01-19T04:36:52.473Z,0
2018-01-19T04:37:51.725Z,0
2018-01-19T04:38:52.487Z,0
2018-01-19T04:39:52.304Z,0
2018-01-19T04:40:52.030Z,0
2018-01-19T04:41:52.320Z,0
2018-01-19T04:42:52.043Z,0
2018-01-19T04:43:52.320Z,0
2018-01-19T04:44:52.322Z,0
2018-01-19T04:45:52.584Z,0
2018-01-19T04:46:52.637Z,0
2018-01-19T04:47:52.116Z,0
2018-01-19T04:48:52.123Z,0
2018-01-19T04:49:51.899Z,0
2018-01-19T04:50:51.906Z,0
2018-01-19T04:51:51.924Z,0
2018-01-19T04:52:52.434Z,0
2018-01-19T04:53:52.448Z,0
2018-01-19T04:54:52.017Z,0
2018-01-19T04:55:52.475Z,0
2018-01-19T04:56:52.741Z,0
2018-01-19T04:57:52.012Z,0
2018-01-19T04:58:52.527Z,0
2018-01-19T04:59:52.277Z,0
2018-01-19T05:00:52.795Z,0
2018-01-19T05:01:52.064Z,0
2018-01-19T05:02:52.327Z,0
2018-01-19T05:03:52.336Z,0
2018-01-19T05:04:51.848Z,0
2018-01-19T05:05:52.620Z,0
2018-01-19T05:06:52.383Z,0
2018-01-19T05:07:52.895Z,0
2018-01-19T05:08:52.405Z,0
2018-01-19T05:09:52.969Z,0
2018-01-19T05:10:52.426Z,0
2018-01-19T05:11:52.190Z,0
2018-01-19T05:12:52.207Z,0
2018-01-19T05:13:52.723Z,0
2018-01-19T05:14:52.233Z,0
2018-01-19T05:15:52.534Z,0
2018-01-19T05:16:52.763Z,0
2018-01-19T05:17:52.525Z,0
2018-01-19T05:18:52.284Z,0
2018-01-19T05:19:52.802Z,0
2018-01-19T05:20:52.562Z,0
2018-01-19T05:21:52.908Z,0
2018-01-19T05:22:52.839Z,0
2018-01-19T05:23:52.603Z,0
2018-01-19T05:24:52.669Z,0
2018-01-19T05:25:52.634Z,0
2018-01-19T05:26:52.642Z,0
2018-01-19T05:27:52.914Z,0
2018-01-19T05:28:52.670Z,0
2018-01-19T05:29:52.696Z,0
2018-01-19T05:30:52.940Z,0
2018-01-19T05:31:52.710Z,0
2018-01-19T05:32:52.718Z,0
2018-01-19T05:33:52.746Z,0
2018-01-19T05:34:52.753Z,0
2018-01-19T05:35:53.260Z,0
2018-01-19T05:36:52.524Z,0
2018-01-19T05:37:52.567Z,0
2018-01-19T05:38:52.804Z,0
2018-01-19T05:39:52.866Z,0
2018-01-19T05:40:53.082Z,0
2018-01-19T05:41:52.852Z,0
2018-01-19T05:42:52.611Z,0
2018-01-19T05:43:53.381Z,0
2018-01-19T05:44:52.640Z,0
2018-01-19T05:45:53.159Z,0
2018-01-19T05:46:52.668Z,0
2018-01-19T05:47:52.928Z,0
2018-01-19T05:48:52.989Z,0
2018-01-19T05:49:52.953Z,0
2018-01-19T05:50:52.994Z,0
2018-01-19T05:51:52.730Z,0
2018-01-19T05:52:52.744Z,0
2018-01-19T05:53:53.011Z,0
2018-01-19T05:54:53.328Z,0
2018-01-19T05:55:52.814Z,0
2018-01-19T05:56:52.549Z,0
2018-01-19T05:57:52.819Z,0
2018-01-19T05:58:53.324Z,0
2018-01-19T05:59:53.339Z,0
2018-01-19T06:00:53.106Z,0
2018-01-19T06:01:53.117Z,0
2018-01-19T06:02:53.384Z,0
2018-01-19T06:03:53.143Z,0
2018-01-19T06:04:53.157Z,0
2018-01-19T06:05:53.183Z,0
2018-01-19T06:06:53.438Z,0
2018-01-19T06:07:53.450Z,0
2018-01-19T06:08:53.461Z,0
2018-01-19T06:09:53.629Z,0
2018-01-19T06:10:53.483Z,0
2018-01-19T06:11:53.499Z,0
2018-01-19T06:12:53.510Z,0
2018-01-19T06:13:53.531Z,0
2018-01-19T06:14:53.790Z,0
2018-01-19T06:15:53.605Z,0
2018-01-19T06:16:53.065Z,0
2018-01-19T06:17:53.334Z,0
2018-01-19T06:18:53.605Z,0
2018-01-19T06:19:53.707Z,0
2018-01-19T06:20:53.381Z,0
2018-01-19T06:21:53.132Z,0
2018-01-19T06:22:53.397Z,0
2018-01-19T06:23:53.407Z,0
2018-01-19T06:24:53.472Z,0
2018-01-19T06:25:53.690Z,0
2018-01-19T06:26:53.198Z,0
2018-01-19T06:27:53.719Z,0
2018-01-19T06:28:53.733Z,0
2018-01-19T06:29:53.488Z,0
2018-01-19T06:30:53.500Z,0
2018-01-19T06:31:53.779Z,0
2018-01-19T06:32:53.295Z,0
2018-01-19T06:33:53.546Z,0
2018-01-19T06:34:54.069Z,0
2018-01-19T06:35:53.574Z,0
2018-01-19T06:36:53.344Z,0
2018-01-19T06:37:53.654Z,0
2018-01-19T06:38:53.860Z,0
2018-01-19T06:39:53.420Z,0
2018-01-19T06:40:54.133Z,0
2018-01-19T06:41:53.920Z,0
2018-01-19T06:42:53.667Z,0
2018-01-19T06:43:53.678Z,0
2018-01-19T06:44:53.939Z,0
2018-01-19T06:45:54.230Z,0
2018-01-19T06:46:53.966Z,0
2018-01-19T06:47:53.727Z,0
2018-01-19T06:48:53.747Z,0
2018-01-19T06:49:54.009Z,0
2018-01-19T06:50:54.039Z,0
2018-01-19T06:51:53.530Z,0
2018-01-19T06:52:54.048Z,0
2018-01-19T06:53:53.816Z,0
2018-01-19T06:54:54.128Z,0
2018-01-19T06:55:53.834Z,0
2018-01-19T06:56:53.855Z,0
2018-01-19T06:57:54.285Z,0
2018-01-19T06:58:53.630Z,0
2018-01-19T06:59:54.142Z,0
2018-01-19T07:00:54.210Z,0
2018-01-19T07:01:54.168Z,0
2018-01-19T07:02:53.937Z,0
2018-01-19T07:03:54.449Z,0
2018-01-19T07:04:53.962Z,0
2018-01-19T07:05:53.734Z,0
2018-01-19T07:06:53.988Z,0
2018-01-19T07:07:54.001Z,0
2018-01-19T07:08:54.519Z,0
2018-01-19T07:09:54.335Z,0
2018-01-19T07:10:53.780Z,0
2018-01-19T07:11:54.291Z,0
2018-01-19T07:12:54.070Z,0
2018-01-19T07:13:53.827Z,0
2018-01-19T07:14:54.351Z,5
2018-01-19T07:15:54.361Z,5
2018-01-19T07:16:54.118Z,0
2018-01-19T07:17:54.151Z,0
2018-01-19T07:18:54.524Z,0
2018-01-19T07:19:53.909Z,0
2018-01-19T07:20:54.177Z,5
2018-01-19T07:21:54.459Z,5
2018-01-19T07:22:53.698Z,5
2018-01-19T07:23:54.221Z,5
2018-01-19T07:24:54.419Z,5
2018-01-19T07:25:54.261Z,5
2018-01-19T07:26:54.522Z,5
2018-01-19T07:27:54.529Z,5
2018-01-19T07:28:53.777Z,5
2018-01-19T07:29:54.042Z,5
2018-01-19T07:30:54.825Z,5
2018-01-19T07:31:54.322Z,10
2018-01-19T07:32:54.586Z,10
2018-01-19T07:33:54.604Z,10
2018-01-19T07:34:54.359Z,10
2018-01-19T07:35:54.625Z,10
2018-01-19T07:36:54.411Z,10
2018-01-19T07:37:54.667Z,10
2018-01-19T07:38:54.165Z,15
2018-01-19T07:39:54.502Z,15
2018-01-19T07:40:54.692Z,15
2018-01-19T07:41:54.458Z,15
2018-01-19T07:42:54.983Z,15
2018-01-19T07:43:54.481Z,15
2018-01-19T07:44:54.039Z,15
2018-01-19T07:45:54.513Z,15
2018-01-19T07:46:54.522Z,15
2018-01-19T07:47:54.537Z,15
2018-01-19T07:48:54.547Z,15
2018-01-19T07:49:54.824Z,15
2018-01-19T07:50:54.574Z,15
2018-01-19T07:51:54.334Z,15
2018-01-19T07:52:54.601Z,15
2018-01-19T07:53:54.869Z,10
2018-01-19T07:54:54.688Z,10
2018-01-19T07:55:54.646Z,10
2018-01-19T07:56:54.650Z,15
2018-01-19T07:57:55.170Z,15
2018-01-19T07:58:55.244Z,15
2018-01-19T07:59:54.958Z,20
2018-01-19T08:00:54.958Z,25
2018-01-19T08:01:54.973Z,25
2018-01-19T08:02:55.007Z,30
2018-01-19T08:03:54.758Z,30
2018-01-19T08:04:55.036Z,30
2018-01-19T08:05:54.775Z,30
2018-01-19T08:06:54.287Z,30
2018-01-19T08:07:54.557Z,30
2018-01-19T08:08:55.123Z,30
2018-01-19T08:09:54.634Z,30
2018-01-19T08:10:54.596Z,30
2018-01-19T08:11:55.116Z,30
2018-01-19T08:12:55.128Z,35
2018-01-19T08:13:54.885Z,35
2018-01-19T08:14:55.150Z,35
2018-01-19T08:15:54.914Z,35
2018-01-19T08:16:55.183Z,35
2018-01-19T08:17:55.196Z,40
2018-01-19T08:18:55.206Z,45
2018-01-19T08:19:55.223Z,50
2018-01-19T08:20:55.238Z,60
2018-01-19T08:21:55.002Z,60
2018-01-19T08:22:54.753Z,60
2018-01-19T08:23:54.774Z,65
2018-01-19T08:24:55.109Z,75
2018-01-19T08:25:55.305Z,85
2018-01-19T08:26:55.066Z,85
2018-01-19T08:27:55.327Z,85
2018-01-19T08:28:55.340Z,80
2018-01-19T08:29:55.119Z,80
2018-01-19T08:30:55.362Z,80
2018-01-19T08:31:55.379Z,80
2018-01-19T08:32:55.143Z,80
2018-01-19T08:33:55.165Z,80
2018-01-19T08:34:55.761Z,70
2018-01-19T08:35:55.680Z,70
2018-01-19T08:36:54.692Z,70
2018-01-19T08:37:55.206Z,70
2018-01-19T08:38:55.489Z,70
2018-01-19T08:39:55.033Z,70
2018-01-19T08:40:54.748Z,70
2018-01-19T08:41:55.041Z,65
2018-01-19T08:42:55.536Z,50
2018-01-19T08:43:55.296Z,40
2018-01-19T08:44:55.059Z,35
2018-01-19T08:45:55.324Z,40
2018-01-19T08:46:55.335Z,45
2018-01-19T08:47:55.097Z,55
2018-01-19T08:48:55.625Z,65
2018-01-19T08:49:55.626Z,75
2018-01-19T08:50:55.663Z,85
2018-01-19T08:51:55.754Z,95
2018-01-19T08:52:55.426Z,100
2018-01-19T08:53:55.744Z,105
2018-01-19T08:54:55.245Z,115
2018-01-19T08:55:55.711Z,120
2018-01-19T08:56:55.230Z,120
2018-01-19T08:57:55.735Z,120
2018-01-19T08:58:56.008Z,125
2018-01-19T08:59:55.761Z,125
2018-01-19T09:00:55.525Z,125
2018-01-19T09:01:55.803Z,125
2018-01-19T09:02:55.813Z,115
2018-01-19T09:03:55.828Z,115
2018-01-19T09:04:55.590Z,120
2018-01-19T09:05:55.854Z,110
2018-01-19T09:06:55.426Z,115
2018-01-19T09:07:56.138Z,120
2018-01-19T09:08:56.157Z,120
2018-01-19T09:09:55.212Z,110
2018-01-19T09:10:56.176Z,110
2018-01-19T09:11:55.690Z,120
2018-01-19T09:12:56.424Z,135
2018-01-19T09:13:55.479Z,140
2018-01-19T09:14:56.240Z,150
2018-01-19T09:15:56.007Z,145
2018-01-19T09:16:56.021Z,135
2018-01-19T09:17:56.032Z,130
2018-01-19T09:18:55.789Z,115
2018-01-19T09:19:56.057Z,110
2018-01-19T09:20:55.821Z,115
2018-01-19T09:21:55.839Z,125
2018-01-19T09:22:56.099Z,125
2018-01-19T09:23:55.613Z,125
2018-01-19T09:24:55.676Z,125
2018-01-19T09:25:55.888Z,145
2018-01-19T09:26:55.914Z,160
2018-01-19T09:27:56.171Z,185
2018-01-19T09:28:56.458Z,200
2018-01-19T09:29:55.446Z,220
2018-01-19T09:30:56.471Z,240
2018-01-19T09:31:55.980Z,250
2018-01-19T09:32:55.991Z,275
2018-01-19T09:33:56.258Z,275
2018-01-19T09:34:55.774Z,245
2018-01-19T09:35:56.284Z,210
2018-01-19T09:36:55.820Z,240
2018-01-19T09:37:56.066Z,235
2018-01-19T09:38:56.368Z,320
2018-01-19T09:39:56.409Z,315
2018-01-19T09:40:55.610Z,280
2018-01-19T09:41:56.379Z,240
2018-01-19T09:42:56.433Z,290
2018-01-19T09:43:56.408Z,265
2018-01-19T09:44:56.169Z,225
2018-01-19T09:45:55.936Z,290
2018-01-19T09:46:56.200Z,340
2018-01-19T09:47:56.214Z,290
2018-01-19T09:48:56.235Z,245
2018-01-19T09:49:56.261Z,235
2018-01-19T09:50:56.010Z,290
2018-01-19T09:51:56.274Z,235
2018-01-19T09:52:56.313Z,325
2018-01-19T09:53:56.810Z,295
2018-01-19T09:54:56.371Z,270
2018-01-19T09:55:55.833Z,240
2018-01-19T09:56:56.096Z,325
2018-01-19T09:57:56.118Z,315
2018-01-19T09:58:56.648Z,255
2018-01-19T09:59:56.422Z,330
2018-01-19T10:00:56.702Z,230
2018-01-19T10:01:56.430Z,235
2018-01-19T10:02:56.445Z,320
2018-01-19T10:03:56.467Z,310
2018-01-19T10:04:56.240Z,175
2018-01-19T10:05:56.757Z,185
2018-01-19T10:06:56.797Z,250
2018-01-19T10:07:56.789Z,215
2018-01-19T10:08:56.037Z,550
2018-01-19T10:09:57.106Z,215
2018-01-19T10:10:56.069Z,1240
2018-01-19T10:11:56.589Z,1270
2018-01-19T10:12:56.866Z,1195
2018-01-19T10:13:56.111Z,245
2018-01-19T10:14:56.630Z,825
2018-01-19T10:15:57.152Z,1395
2018-01-19T10:16:57.176Z,1405
2018-01-19T10:17:56.929Z,1430
2018-01-19T10:18:56.752Z,1450
2018-01-19T10:19:56.964Z,1485
2018-01-19T10:20:56.481Z,1495
2018-01-19T10:21:57.260Z,450
2018-01-19T10:22:56.515Z,1140
2018-01-19T10:23:57.040Z,1405
2018-01-19T10:24:56.866Z,515
2018-01-19T10:25:56.572Z,1130
2018-01-19T10:26:57.097Z,1485
2018-01-19T10:27:56.907Z,500
2018-01-19T10:28:57.181Z,375
2018-01-19T10:29:56.896Z,1325
2018-01-19T10:30:57.421Z,500
2018-01-19T10:31:57.196Z,1275
2018-01-19T10:32:57.030Z,370
2018-01-19T10:33:57.232Z,330
2018-01-19T10:34:57.255Z,440
2018-01-19T10:35:57.526Z,410
2018-01-19T10:36:57.038Z,675
2018-01-19T10:37:57.071Z,585
2018-01-19T10:38:57.590Z,620
2018-01-19T10:39:56.842Z,225
2018-01-19T10:40:57.110Z,190
2018-01-19T10:41:57.687Z,190
2018-01-19T10:42:56.948Z,195
2018-01-19T10:43:57.168Z,200
2018-01-19T10:44:57.851Z,205
2018-01-19T10:45:57.459Z,240
2018-01-19T10:46:57.222Z,270
2018-01-19T10:47:56.990Z,275
2018-01-19T10:48:57.255Z,260
2018-01-19T10:49:57.529Z,265
2018-01-19T10:50:57.543Z,260
2018-01-19T10:51:57.312Z,265
2018-01-19T10:52:57.332Z,255
2018-01-19T10:53:57.352Z,255
2018-01-19T10:54:57.368Z,300
2018-01-19T10:55:57.633Z,315
2018-01-19T10:56:57.160Z,300
2018-01-19T10:57:57.463Z,235
2018-01-19T10:58:57.947Z,195
2018-01-19T10:59:57.704Z,165
2018-01-19T11:00:57.968Z,175
2018-01-19T11:01:57.734Z,190
2018-01-19T11:02:57.005Z,215
2018-01-19T11:03:57.266Z,260
2018-01-19T11:04:57.787Z,265
2018-01-19T11:05:58.053Z,230
2018-01-19T11:06:57.332Z,230
2018-01-19T11:07:57.837Z,240
2018-01-19T11:08:57.606Z,230
2018-01-19T11:09:57.617Z,210
2018-01-19T11:10:57.878Z,230
2018-01-19T11:11:57.654Z,245
2018-01-19T11:12:57.665Z,275
2018-01-19T11:13:58.430Z,290
2018-01-19T11:14:57.443Z,285
2018-01-19T11:15:57.967Z,290
2018-01-19T11:16:57.980Z,310
2018-01-19T11:17:57.494Z,290
2018-01-19T11:18:57.764Z,1245
2018-01-19T11:19:57.777Z,345
2018-01-19T11:20:58.052Z,365
2018-01-19T11:21:58.013Z,280
2018-01-19T11:22:58.086Z,705
2018-01-19T11:23:57.587Z,255
2018-01-19T11:24:57.608Z,290
2018-01-19T11:25:58.133Z,1570
2018-01-19T11:26:58.145Z,1390
2018-01-19T11:27:58.157Z,450
2018-01-19T11:28:58.485Z,1315
2018-01-19T11:29:57.937Z,1220
2018-01-19T11:30:57.961Z,1255
2018-01-19T11:31:58.477Z,1350
2018-01-19T11:32:57.996Z,1495
2018-01-19T11:33:57.770Z,1605
2018-01-19T11:34:58.301Z,1740
2018-01-19T11:35:57.799Z,1835
2018-01-19T11:36:58.336Z,1755
2018-01-19T11:37:58.091Z,1715
2018-01-19T11:38:57.859Z,1640
2018-01-19T11:39:57.889Z,1645
2018-01-19T11:40:57.963Z,1340
2018-01-19T11:41:58.225Z,1645
2018-01-19T11:42:58.451Z,1790
2018-01-19T11:43:58.527Z,1965
2018-01-19T11:44:58.052Z,1855
2018-01-19T11:45:58.526Z,1990
2018-01-19T11:46:58.300Z,2155
2018-01-19T11:47:58.322Z,2240
2018-01-19T11:48:58.344Z,2000
2018-01-19T11:49:58.668Z,1665
2018-01-19T11:50:58.397Z,1680
2018-01-19T11:51:58.415Z,750
2018-01-19T11:52:58.691Z,530
2018-01-19T11:53:58.469Z,1850
2018-01-19T11:54:58.239Z,1770
2018-01-19T11:55:58.783Z,460
2018-01-19T11:56:58.299Z,1240
2018-01-19T11:57:58.309Z,1640
2018-01-19T11:58:58.598Z,405
2018-01-19T11:59:58.764Z,425
2018-01-19T12:00:58.393Z,1330
2018-01-19T12:01:58.659Z,2140
2018-01-19T12:02:58.940Z,1970
2018-01-19T12:03:58.214Z,1940
2018-01-19T12:04:58.726Z,1575
2018-01-19T12:05:58.504Z,1435
2018-01-19T12:06:58.530Z,405
2018-01-19T12:07:58.298Z,760
2018-01-19T12:08:59.074Z,2535
2018-01-19T12:09:59.106Z,2530
2018-01-19T12:10:58.626Z,2130
2018-01-19T12:11:58.397Z,2285
2018-01-19T12:12:58.668Z,340
2018-01-19T12:13:58.697Z,410
2018-01-19T12:14:59.017Z,485
2018-01-19T12:15:59.246Z,330
2018-01-19T12:16:58.766Z,2235
2018-01-19T12:17:59.039Z,2375
2018-01-19T12:18:59.059Z,2360
2018-01-19T12:19:59.334Z,2405
2018-01-19T12:20:58.857Z,405
2018-01-19T12:21:59.137Z,515
2018-01-19T12:22:59.163Z,2485
2018-01-19T12:23:59.176Z,1975
2018-01-19T12:24:59.195Z,730
2018-01-19T12:25:58.965Z,410
2018-01-19T12:26:58.999Z,1980
2018-01-19T12:27:59.276Z,360
2018-01-19T12:28:59.544Z,375
2018-01-19T12:29:59.867Z,395
2018-01-19T12:30:59.078Z,1860
2018-01-19T12:31:59.369Z,685
2018-01-19T12:32:59.626Z,570
2018-01-19T12:33:59.903Z,650
2018-01-19T12:34:59.167Z,2350
2018-01-19T12:35:59.187Z,620
2018-01-19T12:36:59.711Z,495
2018-01-19T12:37:59.481Z,490
2018-01-19T12:38:59.502Z,1205
2018-01-19T12:39:59.121Z,1335
2018-01-19T12:40:59.799Z,2530
2018-01-19T12:41:59.827Z,2140
2018-01-19T12:42:59.336Z,420
2018-01-19T12:43:59.862Z,455
2018-01-19T12:44:59.933Z,2295
2018-01-19T12:45:59.672Z,365
2018-01-19T12:46:59.686Z,2135
2018-01-19T12:48:00.227Z,475
2018-01-19T12:48:59.729Z,2065
2018-01-19T12:50:00.000Z,385
2018-01-19T12:50:59.793Z,445
2018-01-19T12:52:00.049Z,2140
2018-01-19T12:52:59.810Z,2235
2018-01-19T12:54:00.346Z,2215
2018-01-19T12:55:00.360Z,575
2018-01-19T12:56:00.137Z,785
2018-01-19T12:57:00.412Z,2550
2018-01-19T12:57:59.923Z,2425
2018-01-19T12:58:59.692Z,385
2018-01-19T12:59:59.867Z,2525
2018-01-19T13:01:00.496Z,2470
2018-01-19T13:02:00.271Z,2580
2018-01-19T13:03:00.066Z,2565
2018-01-19T13:04:00.058Z,2590
2018-01-19T13:05:00.587Z,2620
2018-01-19T13:05:59.853Z,2555
2018-01-19T13:07:00.384Z,2460
2018-01-19T13:08:00.408Z,2335
2018-01-19T13:08:59.944Z,2345
2018-01-19T13:10:00.724Z,2385
2018-01-19T13:11:00.233Z,2420
2018-01-19T13:12:00.509Z,2380
2018-01-19T13:13:00.542Z,2330
2018-01-19T13:14:00.566Z,2335
2018-01-19T13:15:00.898Z,2240
2018-01-19T13:16:00.617Z,2150
2018-01-19T13:17:00.390Z,2140
2018-01-19T13:18:00.924Z,2330
2018-01-19T13:19:00.450Z,2310
2018-01-19T13:20:00.744Z,2140
2018-01-19T13:21:00.493Z,2010
2018-01-19T13:22:00.288Z,2170
2018-01-19T13:23:00.301Z,680
2018-01-19T13:24:00.074Z,1815
2018-01-19T13:25:00.603Z,1720
2018-01-19T13:26:00.375Z,555
2018-01-19T13:27:00.403Z,850
2018-01-19T13:28:01.191Z,315
2018-01-19T13:29:00.452Z,260
2018-01-19T13:30:00.780Z,285
2018-01-19T13:31:01.259Z,345
2018-01-19T13:32:00.783Z,1720
2018-01-19T13:33:01.072Z,1735
2018-01-19T13:34:01.325Z,500
2018-01-19T13:35:01.102Z,1775
2018-01-19T13:36:00.623Z,2325
2018-01-19T13:37:01.155Z,2420
2018-01-19T13:38:00.682Z,2265
2018-01-19T13:39:01.454Z,2180
2018-01-19T13:40:01.217Z,715
2018-01-19T13:41:00.753Z,265
2018-01-19T13:42:00.772Z,320
2018-01-19T13:43:01.553Z,285
2018-01-19T13:44:00.818Z,295
2018-01-19T13:45:01.143Z,505
2018-01-19T13:46:01.110Z,245
2018-01-19T13:47:01.639Z,220
2018-01-19T13:48:01.168Z,200
2018-01-19T13:49:00.675Z,190
2018-01-19T13:50:01.694Z,195
2018-01-19T13:51:01.471Z,210
2018-01-19T13:52:00.990Z,225
2018-01-19T13:53:01.254Z,240
2018-01-19T13:54:01.287Z,255
2018-01-19T13:55:01.298Z,275
2018-01-19T13:56:01.328Z,265
2018-01-19T13:57:01.333Z,230
2018-01-19T13:58:01.870Z,220
2018-01-19T13:59:01.381Z,220
2018-01-19T14:00:01.956Z,265
2018-01-19T14:01:01.413Z,285
2018-01-19T14:02:01.187Z,270
2018-01-19T14:03:01.203Z,270
2018-01-19T14:04:01.723Z,265
2018-01-19T14:05:01.492Z,275
2018-01-19T14:06:01.510Z,275
2018-01-19T14:07:01.276Z,285
2018-01-19T14:08:01.307Z,295
2018-01-19T14:09:01.813Z,300
2018-01-19T14:10:01.829Z,295
2018-01-19T14:11:01.867Z,280
2018-01-19T14:12:01.863Z,265
2018-01-19T14:13:01.887Z,255
2018-01-19T14:14:01.661Z,245
2018-01-19T14:15:01.712Z,215
2018-01-19T14:16:01.681Z,220
2018-01-19T14:17:01.707Z,220
2018-01-19T14:18:01.968Z,205
2018-01-19T14:19:02.231Z,200
2018-01-19T14:20:01.493Z,205
2018-01-19T14:21:02.280Z,205
2018-01-19T14:22:01.533Z,190
2018-01-19T14:23:01.805Z,180
2018-01-19T14:40:01.612Z,195
2018-01-19T14:41:01.936Z,200
2018-01-19T14:42:01.395Z,200
2018-01-19T14:43:01.903Z,175
2018-01-19T14:44:01.414Z,170
2018-01-19T14:45:01.950Z,165
2018-01-19T14:46:01.427Z,165
2018-01-19T14:47:01.958Z,160
2018-01-19T14:48:01.965Z,155
2018-01-19T14:49:01.722Z,150
2018-01-19T14:50:01.792Z,145
2018-01-19T14:51:02.016Z,140
2018-01-19T14:52:01.810Z,140
2018-01-19T14:53:02.030Z,140
2018-01-19T14:54:02.313Z,140
2018-01-19T14:55:01.830Z,135
2018-01-19T14:56:02.079Z,125
2018-01-19T14:57:02.140Z,120
2018-01-19T14:58:02.142Z,125
2018-01-19T14:59:01.890Z,130
2018-01-19T15:00:01.642Z,130
2018-01-19T15:01:02.160Z,130